Time;durP1;ratioP1;P1;durP2;ratioP2;P2;SDS_P1;SDS_P2;PMS_P1;PMS_P2;Temp;Humidity;BMP_temperature;BMP_pressure;BME280_temperature;BME280_humidity;BME280_pressure;Samples;Min_cycle;Max_cycle;Signal;HPM_P1;HPM_P2
2022/12/30 00:00:57;;;;;;;1.17;0.65;;;8.80;99.90;;;;;;5071738;28;20021;-37
2022/12/30 00:03:22;;;;;;;2.13;1.15;;;8.70;99.90;;;;;;5071989;28;20040;-42
2022/12/30 00:05:48;;;;;;;1.65;0.80;;;8.80;99.90;;;;;;5071366;28;20029;-41
2022/12/30 00:10:58;;;;;;;1.38;0.75;;;8.80;99.90;;;;;;5071906;28;20130;-41
2022/12/30 00:33:08;;;;;;;1.10;0.70;;;8.70;99.90;;;;;;5071415;28;20082;-38
2022/12/30 00:35:36;;;;;;;1.17;0.60;;;8.80;99.90;;;;;;5071293;28;20021;-35
2022/12/30 00:38:02;;;;;;;1.20;0.75;;;8.70;99.90;;;;;;5071248;28;20035;-35
2022/12/30 00:40:28;;;;;;;1.30;0.80;;;8.70;99.90;;;;;;5071281;28;20107;-32
2022/12/30 00:43:09;;;;;;;1.33;0.70;;;8.70;99.90;;;;;;5071267;28;20482;-34
2022/12/30 00:45:42;;;;;;;1.67;0.80;;;8.70;99.90;;;;;;5071400;28;20513;-42
2022/12/30 00:56:21;;;;;;;1.48;0.70;;;8.70;99.90;;;;;;5071375;28;19935;-41
2022/12/30 00:58:47;;;;;;;1.00;0.60;;;8.70;99.90;;;;;;5074785;28;20478;-40
2022/12/30 01:01:13;;;;;;;1.23;0.63;;;8.70;99.90;;;;;;5075321;28;20027;-35
2022/12/30 01:03:38;;;;;;;0.93;0.75;;;8.70;99.90;;;;;;5075347;28;20020;-41
2022/12/30 01:06:08;;;;;;;3.33;0.70;;;8.70;99.90;;;;;;5074656;28;20024;-39
2022/12/30 01:08:34;;;;;;;1.17;0.68;;;8.70;99.90;;;;;;5074918;28;20029;-42
2022/12/30 01:11:05;;;;;;;2.33;0.73;;;8.70;99.90;;;;;;5074995;28;20025;-37
2022/12/30 01:13:30;;;;;;;1.92;0.70;;;8.70;99.90;;;;;;5074936;28;20103;-43
2022/12/30 01:15:56;;;;;;;0.93;0.75;;;8.70;99.90;;;;;;5074813;28;20566;-38
2022/12/30 01:18:23;;;;;;;1.30;0.73;;;8.70;99.90;;;;;;5074664;28;20024;-33
2022/12/30 01:20:48;;;;;;;0.90;0.60;;;8.70;99.90;;;;;;5074584;28;20094;-35
2022/12/30 01:23:14;;;;;;;1.67;0.70;;;8.70;99.90;;;;;;5074846;28;20478;-43
2022/12/30 01:25:40;;;;;;;0.98;0.57;;;8.70;99.90;;;;;;5074982;28;20039;-35
2022/12/30 01:28:05;;;;;;;1.38;0.60;;;8.70;99.90;;;;;;5074598;28;20032;-33
2022/12/30 01:30:31;;;;;;;1.95;0.77;;;8.70;99.90;;;;;;5074320;28;20081;-39
2022/12/30 01:32:57;;;;;;;1.25;0.50;;;8.70;99.90;;;;;;5074532;28;20020;-37
2022/12/30 01:35:22;;;;;;;0.60;0.50;;;8.70;99.90;;;;;;5074905;28;20040;-37
2022/12/30 01:37:48;;;;;;;1.13;0.60;;;8.70;99.90;;;;;;5074502;28;20033;-33
2022/12/30 01:40:14;;;;;;;1.50;0.90;;;8.70;99.90;;;;;;5074494;28;20037;-42
2022/12/30 01:42:41;;;;;;;0.82;0.65;;;8.70;99.90;;;;;;5074695;28;20020;-41
2022/12/30 01:45:20;;;;;;;0.95;0.80;;;8.70;99.90;;;;;;5074318;28;20040;-42
2022/12/30 01:47:58;;;;;;;1.05;0.70;;;8.70;99.90;;;;;;5073990;28;20024;-34
2022/12/30 01:50:58;;;;;;;1.30;0.70;;;8.70;99.90;;;;;;5074350;28;20500;-39
2022/12/30 01:53:27;;;;;;;1.88;0.50;;;8.70;99.90;;;;;;5073834;28;20047;-41
2022/12/30 01:55:57;;;;;;;0.90;0.70;;;8.70;99.90;;;;;;5073979;28;20025;-35
2022/12/30 01:58:43;;;;;;;0.95;0.68;;;8.60;99.90;;;;;;5073896;28;20086;-33
2022/12/30 02:01:09;;;;;;;1.92;0.85;;;8.70;99.90;;;;;;5074072;28;20029;-33
2022/12/30 02:03:44;;;;;;;0.95;0.73;;;8.70;99.90;;;;;;5073921;28;20490;-35
2022/12/30 02:06:13;;;;;;;0.93;0.70;;;8.60;99.90;;;;;;5073824;28;20078;-33
2022/12/30 02:08:39;;;;;;;1.52;0.57;;;8.60;99.90;;;;;;5073459;28;20036;-34
2022/12/30 02:11:05;;;;;;;1.08;0.55;;;8.60;99.90;;;;;;5073758;28;20029;-38
2022/12/30 02:13:31;;;;;;;2.85;0.80;;;8.60;99.90;;;;;;5073989;28;20453;-39
2022/12/30 02:16:26;;;;;;;1.40;0.95;;;8.60;99.90;;;;;;5073480;28;20048;-34
2022/12/30 02:18:57;;;;;;;1.92;0.85;;;8.60;99.90;;;;;;5047791;28;20036;-33
2022/12/30 02:21:41;;;;;;;2.38;0.80;;;8.60;99.90;;;;;;5073670;28;20056;-42
2022/12/30 02:24:35;;;;;;;2.47;0.90;;;8.60;99.90;;;;;;5073763;28;20024;-33
2022/12/30 02:27:18;;;;;;;0.90;0.65;;;8.60;99.90;;;;;;5073372;28;20070;-32
2022/12/30 02:30:20;;;;;;;1.98;0.70;;;8.60;99.90;;;;;;5073587;28;20062;-34
2022/12/30 02:33:07;;;;;;;1.65;0.80;;;8.60;99.90;;;;;;5041507;28;20389;-35
2022/12/30 02:35:39;;;;;;;2.25;0.70;;;8.60;99.90;;;;;;5073196;28;20099;-36
2022/12/30 02:38:22;;;;;;;3.60;0.80;;;8.60;99.90;;;;;;5073313;28;20026;-32
2022/12/30 02:44:36;;;;;;;1.45;0.70;;;8.60;99.90;;;;;;5057493;28;20054;-40
2022/12/30 02:47:12;;;;;;;1.17;0.50;;;8.60;99.90;;;;;;5072883;28;20029;-38
2022/12/30 02:49:40;;;;;;;1.02;0.70;;;8.50;99.90;;;;;;5073058;28;20032;-34
2022/12/30 02:52:17;;;;;;;1.27;0.80;;;8.60;99.90;;;;;;5073046;28;20032;-35
2022/12/30 02:54:47;;;;;;;1.98;0.68;;;8.50;99.90;;;;;;5073095;28;20029;-42
2022/12/30 02:57:41;;;;;;;1.92;0.77;;;8.50;99.90;;;;;;5072717;28;20099;-40
2022/12/30 03:06:25;;;;;;;1.02;0.73;;;8.50;99.90;;;;;;5072869;28;20043;-35
2022/12/30 03:08:59;;;;;;;1.33;0.63;;;8.50;99.90;;;;;;5072762;28;20025;-38
2022/12/30 03:11:31;;;;;;;1.90;0.70;;;8.50;99.90;;;;;;5072954;28;20375;-36
2022/12/30 03:14:21;;;;;;;2.90;0.60;;;8.50;99.90;;;;;;5072541;28;20024;-42
2022/12/30 03:16:56;;;;;;;2.40;0.75;;;8.50;99.90;;;;;;5072212;28;20086;-44
2022/12/30 03:19:25;;;;;;;1.40;0.77;;;8.50;99.90;;;;;;5072419;28;20020;-34
2022/12/30 03:21:53;;;;;;;1.20;0.73;;;8.50;99.90;;;;;;5072038;28;20544;-39
2022/12/30 03:27:11;;;;;;;0.82;0.60;;;8.50;99.90;;;;;;5072396;28;20027;-32
2022/12/30 03:29:43;;;;;;;1.55;0.85;;;8.50;99.90;;;;;;5072104;28;20497;-35
2022/12/30 03:32:14;;;;;;;1.35;0.68;;;8.50;99.90;;;;;;5072421;28;20117;-39
2022/12/30 03:34:39;;;;;;;1.05;0.77;;;8.50;99.90;;;;;;5072380;28;20359;-37
2022/12/30 03:37:17;;;;;;;1.30;0.98;;;8.40;99.90;;;;;;5072362;28;20036;-39
2022/12/30 03:39:51;;;;;;;1.00;0.63;;;8.40;99.90;;;;;;5072059;28;20382;-39
2022/12/30 03:42:17;;;;;;;1.98;0.82;;;8.40;99.90;;;;;;5072009;28;20386;-34
2022/12/30 03:44:44;;;;;;;0.88;0.60;;;8.40;99.90;;;;;;5071959;28;20029;-33
2022/12/30 03:47:15;;;;;;;1.17;0.90;;;8.40;99.90;;;;;;5071653;28;20025;-38
2022/12/30 03:49:42;;;;;;;0.77;0.68;;;8.40;99.90;;;;;;5072000;28;20102;-41
2022/12/30 03:52:09;;;;;;;1.10;0.80;;;8.40;99.90;;;;;;5072269;28;20031;-43
2022/12/30 03:54:35;;;;;;;1.55;0.60;;;8.40;99.90;;;;;;5071781;28;20119;-43
2022/12/30 03:57:00;;;;;;;1.00;0.82;;;8.40;99.90;;;;;;5071361;28;20100;-41
2022/12/30 03:59:26;;;;;;;3.13;0.90;;;8.30;99.90;;;;;;5071825;28;20028;-33
2022/12/30 04:01:52;;;;;;;1.85;0.90;;;8.40;99.90;;;;;;5072115;28;20085;-38
2022/12/30 04:04:19;;;;;;;1.83;0.80;;;8.30;99.90;;;;;;5071625;28;20031;-32
2022/12/30 04:06:45;;;;;;;1.20;0.90;;;8.30;99.90;;;;;;5071328;28;20020;-33
2022/12/30 04:09:11;;;;;;;4.68;1.10;;;8.30;99.90;;;;;;5071512;28;20029;-35
2022/12/30 04:11:36;;;;;;;1.73;1.08;;;8.30;99.90;;;;;;5071466;28;20066;-33
2022/12/30 04:14:02;;;;;;;2.40;0.98;;;8.30;99.90;;;;;;5071638;28;20055;-35
2022/12/30 04:16:28;;;;;;;0.85;0.73;;;8.30;99.90;;;;;;5071506;28;20013;-33
2022/12/30 04:18:54;;;;;;;0.90;0.80;;;8.30;99.90;;;;;;5071547;28;20482;-35
2022/12/30 04:21:19;;;;;;;1.40;0.90;;;8.30;99.90;;;;;;5071457;28;20095;-40
2022/12/30 04:23:45;;;;;;;0.90;0.65;;;8.30;99.90;;;;;;5071555;28;20032;-43
2022/12/30 04:26:11;;;;;;;1.30;1.10;;;8.30;99.90;;;;;;5071144;28;20350;-34
2022/12/30 04:28:36;;;;;;;1.05;0.77;;;8.30;99.90;;;;;;5071546;28;20046;-33
2022/12/30 04:31:02;;;;;;;2.00;1.00;;;8.30;99.90;;;;;;5071506;28;20060;-32
2022/12/30 04:33:29;;;;;;;1.20;0.88;;;8.30;99.90;;;;;;5071515;28;20425;-40
2022/12/30 04:35:54;;;;;;;2.75;1.48;;;8.30;99.90;;;;;;5071058;28;20025;-35
2022/12/30 04:38:20;;;;;;;2.78;1.40;;;8.30;99.90;;;;;;5071106;28;20077;-39
2022/12/30 04:40:45;;;;;;;1.75;0.98;;;8.20;99.90;;;;;;5071007;28;20068;-34
2022/12/30 04:43:11;;;;;;;1.58;1.20;;;8.20;99.90;;;;;;5071185;28;20110;-35
2022/12/30 04:45:37;;;;;;;3.40;1.20;;;8.20;99.90;;;;;;5071268;28;20031;-40
2022/12/30 04:48:02;;;;;;;2.17;1.00;;;8.20;99.90;;;;;;5071035;28;20028;-35
2022/12/30 04:50:28;;;;;;;1.00;0.90;;;8.20;99.90;;;;;;5071257;28;20104;-40
2022/12/30 04:52:53;;;;;;;2.17;1.00;;;8.20;99.90;;;;;;5071161;28;20021;-43
2022/12/30 04:55:19;;;;;;;1.52;1.08;;;8.20;99.90;;;;;;5070865;28;20063;-39
2022/12/30 04:57:45;;;;;;;1.70;1.00;;;8.20;99.90;;;;;;5071099;28;20024;-38
2022/12/30 05:00:11;;;;;;;1.00;0.70;;;8.20;99.90;;;;;;5071102;28;20024;-34
2022/12/30 05:02:37;;;;;;;1.45;0.98;;;8.20;99.90;;;;;;5071114;28;20027;-35
2022/12/30 05:05:04;;;;;;;2.00;0.80;;;8.20;99.90;;;;;;5071114;28;20017;-34
2022/12/30 05:07:30;;;;;;;0.82;0.80;;;8.20;99.90;;;;;;5071082;28;20028;-37
2022/12/30 05:09:55;;;;;;;1.05;0.65;;;8.20;99.90;;;;;;5070975;28;20529;-36
2022/12/30 05:12:21;;;;;;;1.23;0.70;;;8.20;99.90;;;;;;5071430;28;20518;-40
2022/12/30 05:14:47;;;;;;;2.30;1.05;;;8.20;99.90;;;;;;5071267;28;20502;-41
2022/12/30 05:17:13;;;;;;;1.90;0.90;;;8.20;99.90;;;;;;5070568;28;20012;-42
2022/12/30 05:19:38;;;;;;;1.38;1.00;;;8.30;99.90;;;;;;5071165;28;20127;-32
2022/12/30 05:22:04;;;;;;;1.42;1.00;;;8.30;99.90;;;;;;5071481;28;20534;-33
2022/12/30 05:27:14;;;;;;;0.80;0.80;;;8.30;99.90;;;;;;5070543;28;20505;-40
2022/12/30 05:29:40;;;;;;;1.33;0.70;;;8.30;99.90;;;;;;5070693;28;20024;-34
2022/12/30 05:32:05;;;;;;;0.85;0.73;;;8.30;99.90;;;;;;5070871;28;20029;-38
2022/12/30 05:34:31;;;;;;;0.90;0.68;;;8.30;99.90;;;;;;5070836;28;20025;-41
2022/12/30 05:36:56;;;;;;;0.70;0.70;;;8.30;99.90;;;;;;5070311;28;20074;-34
2022/12/30 05:39:22;;;;;;;0.82;0.52;;;8.30;99.90;;;;;;5070643;28;20039;-39
2022/12/30 05:41:47;;;;;;;1.05;0.80;;;8.30;99.90;;;;;;5070717;28;20059;-33
2022/12/30 05:44:13;;;;;;;2.47;0.95;;;8.30;99.90;;;;;;5072808;28;20036;-35
2022/12/30 05:46:39;;;;;;;1.23;0.70;;;8.30;99.90;;;;;;5074049;28;20039;-36
2022/12/30 05:49:05;;;;;;;1.58;0.75;;;8.30;99.90;;;;;;5074165;28;20064;-40
2022/12/30 05:51:30;;;;;;;1.45;0.90;;;8.30;99.90;;;;;;5074099;28;20016;-34
2022/12/30 05:53:56;;;;;;;0.95;0.73;;;8.20;99.90;;;;;;5074116;28;20032;-35
2022/12/30 05:56:22;;;;;;;1.50;0.70;;;8.20;99.90;;;;;;5073710;28;20482;-41
2022/12/30 05:58:47;;;;;;;0.75;0.70;;;8.30;99.90;;;;;;5074100;28;20560;-34
2022/12/30 06:01:14;;;;;;;1.20;0.80;;;8.20;99.90;;;;;;5074132;28;20129;-34
2022/12/30 06:03:40;;;;;;;1.42;0.80;;;8.20;99.90;;;;;;5074079;28;20052;-34
2022/12/30 06:06:07;;;;;;;1.15;0.95;;;8.20;99.90;;;;;;5073528;28;20032;-37
2022/12/30 06:08:34;;;;;;;1.17;0.80;;;8.20;99.90;;;;;;5073858;28;20078;-33
2022/12/30 06:11:00;;;;;;;1.85;0.82;;;8.20;99.90;;;;;;5073874;28;20443;-34
2022/12/30 06:13:26;;;;;;;0.75;0.68;;;8.20;99.90;;;;;;5073889;28;20509;-37
2022/12/30 06:15:52;;;;;;;1.23;0.80;;;8.20;99.90;;;;;;5073587;28;20379;-37
2022/12/30 06:18:17;;;;;;;1.40;0.77;;;8.20;99.90;;;;;;5073578;28;20051;-42
2022/12/30 06:20:44;;;;;;;1.25;0.90;;;8.20;99.90;;;;;;5073571;28;20336;-34
2022/12/30 06:23:10;;;;;;;1.27;0.77;;;8.20;99.90;;;;;;5073551;28;20033;-39
2022/12/30 06:25:36;;;;;;;2.10;1.10;;;8.20;99.90;;;;;;5073538;28;20036;-41
2022/12/30 06:28:01;;;;;;;1.55;1.10;;;8.20;99.90;;;;;;5073147;28;20501;-41
2022/12/30 06:30:27;;;;;;;0.95;0.70;;;8.20;99.90;;;;;;5073494;28;20074;-41
2022/12/30 06:32:54;;;;;;;1.58;0.80;;;8.20;99.90;;;;;;5073595;28;20023;-32
2022/12/30 06:35:19;;;;;;;0.98;0.77;;;8.20;99.90;;;;;;5073294;28;20107;-38
2022/12/30 06:37:45;;;;;;;3.53;0.90;;;8.20;99.90;;;;;;5071761;28;20111;-33
2022/12/30 06:40:11;;;;;;;1.75;0.93;;;8.20;99.90;;;;;;5073333;28;20479;-41
2022/12/30 06:42:37;;;;;;;2.03;0.90;;;8.20;99.90;;;;;;5073156;28;20107;-34
2022/12/30 06:45:06;;;;;;;1.05;0.68;;;8.20;99.90;;;;;;5073328;28;20040;-37
2022/12/30 06:47:32;;;;;;;1.08;0.73;;;8.20;99.90;;;;;;5072700;28;20024;-32
2022/12/30 06:49:58;;;;;;;1.40;0.73;;;8.20;99.90;;;;;;5073070;28;20081;-32
2022/12/30 06:52:23;;;;;;;1.63;0.80;;;8.20;99.90;;;;;;5072992;28;20513;-43
2022/12/30 06:54:49;;;;;;;1.10;0.60;;;8.20;99.90;;;;;;5071886;28;20119;-40
2022/12/30 06:57:15;;;;;;;1.92;0.80;;;8.20;99.90;;;;;;5072681;28;20028;-32
2022/12/30 06:59:40;;;;;;;1.45;0.80;;;8.20;99.90;;;;;;5073249;28;20248;-39
2022/12/30 07:02:06;;;;;;;0.80;0.60;;;8.20;99.90;;;;;;5073066;28;20068;-35
2022/12/30 07:04:32;;;;;;;1.17;0.70;;;8.20;99.90;;;;;;5073404;28;20107;-37
2022/12/30 07:06:58;;;;;;;1.10;0.80;;;8.20;99.90;;;;;;5073162;28;20020;-37
2022/12/30 07:09:24;;;;;;;1.13;0.60;;;8.20;99.90;;;;;;5072612;28;20032;-37
2022/12/30 07:11:49;;;;;;;0.90;0.75;;;8.20;99.90;;;;;;5072653;28;20017;-37
2022/12/30 07:14:15;;;;;;;2.88;0.82;;;8.20;99.90;;;;;;5072648;28;20028;-42
2022/12/30 07:16:41;;;;;;;1.15;0.80;;;8.20;99.90;;;;;;5072267;28;20433;-43
2022/12/30 07:19:06;;;;;;;3.58;0.90;;;8.10;99.90;;;;;;5072520;28;20017;-35
2022/12/30 07:21:32;;;;;;;1.05;0.75;;;8.20;99.90;;;;;;5072706;28;20539;-37
2022/12/30 07:23:59;;;;;;;1.00;0.70;;;8.10;99.90;;;;;;5072844;28;20020;-38
2022/12/30 07:26:24;;;;;;;1.15;0.73;;;8.10;99.90;;;;;;5071659;28;20051;-36
2022/12/30 07:28:53;;;;;;;2.05;0.90;;;8.10;99.90;;;;;;5072315;28;20048;-43
2022/12/30 07:31:19;;;;;;;1.30;1.02;;;8.10;99.90;;;;;;5072169;28;20031;-42
2022/12/30 07:33:45;;;;;;;1.60;0.82;;;8.10;99.90;;;;;;5072244;28;20107;-43
2022/12/30 07:36:10;;;;;;;1.02;0.70;;;8.10;99.90;;;;;;5071876;28;20025;-37
2022/12/30 07:38:36;;;;;;;1.40;0.90;;;8.10;99.90;;;;;;5071928;28;20020;-35
2022/12/30 07:41:02;;;;;;;3.05;0.90;;;8.10;99.90;;;;;;5072499;28;20588;-35
2022/12/30 07:43:27;;;;;;;2.75;0.80;;;8.10;99.90;;;;;;5072205;28;20025;-41
2022/12/30 07:45:53;;;;;;;1.35;0.85;;;8.10;99.90;;;;;;5072379;28;20032;-39
2022/12/30 07:48:18;;;;;;;2.28;1.10;;;8.10;99.90;;;;;;5071928;28;20113;-42
2022/12/30 07:50:44;;;;;;;1.70;0.90;;;8.10;99.90;;;;;;5071791;28;20390;-35
2022/12/30 07:53:10;;;;;;;0.95;0.80;;;8.10;99.90;;;;;;5071938;28;20028;-36
2022/12/30 07:55:39;;;;;;;1.63;0.88;;;8.10;99.90;;;;;;5071671;28;20032;-35
2022/12/30 07:58:05;;;;;;;3.22;1.10;;;8.10;99.90;;;;;;5071977;28;20086;-34
2022/12/30 08:00:31;;;;;;;2.45;1.05;;;8.10;99.90;;;;;;5071869;28;20025;-33
2022/12/30 08:02:57;;;;;;;2.60;1.02;;;8.10;99.90;;;;;;5071781;28;20056;-34
2022/12/30 08:05:22;;;;;;;1.50;1.02;;;8.10;99.90;;;;;;5072221;28;20037;-34
2022/12/30 08:07:51;;;;;;;3.17;1.40;;;8.10;99.90;;;;;;5071029;28;20020;-35
2022/12/30 08:10:18;;;;;;;1.08;0.77;;;8.10;99.90;;;;;;5071978;28;20021;-43
2022/12/30 08:12:45;;;;;;;2.22;0.90;;;8.20;99.90;;;;;;5071728;28;20055;-34
2022/12/30 08:15:11;;;;;;;1.27;0.77;;;8.20;99.90;;;;;;5071608;28;20025;-35
2022/12/30 08:17:37;;;;;;;1.48;1.00;;;8.20;99.90;;;;;;5071260;28;20531;-40
2022/12/30 08:20:03;;;;;;;1.65;1.00;;;8.20;99.90;;;;;;5071401;28;20033;-40
2022/12/30 08:22:29;;;;;;;2.65;0.93;;;8.20;99.90;;;;;;5071422;28;20410;-40
2022/12/30 08:24:55;;;;;;;3.45;1.10;;;8.20;99.90;;;;;;5071389;28;20029;-41
2022/12/30 08:27:20;;;;;;;1.85;1.20;;;8.20;99.90;;;;;;5069523;28;20024;-39
2022/12/30 08:29:46;;;;;;;2.03;1.00;;;8.20;99.90;;;;;;5071280;28;20024;-39
2022/12/30 08:32:12;;;;;;;2.20;1.30;;;8.30;99.90;;;;;;5071278;28;20025;-34
2022/12/30 08:34:37;;;;;;;1.30;1.00;;;8.30;99.90;;;;;;5071195;28;20028;-33
2022/12/30 08:37:03;;;;;;;1.42;1.00;;;8.30;99.90;;;;;;5071448;28;20373;-37
2022/12/30 08:39:28;;;;;;;1.42;0.98;;;8.30;99.90;;;;;;5071562;28;20040;-33
2022/12/30 08:41:54;;;;;;;3.03;0.90;;;8.30;99.90;;;;;;5071249;28;20040;-33
2022/12/30 08:44:20;;;;;;;1.17;0.80;;;8.30;99.90;;;;;;5071164;28;20021;-36
2022/12/30 08:46:45;;;;;;;2.60;0.90;;;8.30;99.90;;;;;;5070827;28;20021;-35
2022/12/30 08:49:12;;;;;;;1.83;1.08;;;8.40;99.90;;;;;;5070940;28;20108;-37
2022/12/30 08:51:38;;;;;;;1.38;1.00;;;8.40;99.90;;;;;;5071123;28;20482;-37
2022/12/30 08:54:04;;;;;;;1.90;1.02;;;8.40;99.90;;;;;;5071504;28;20024;-34
2022/12/30 08:56:32;;;;;;;1.42;1.00;;;8.40;99.90;;;;;;5071111;28;20025;-36
2022/12/30 08:58:59;;;;;;;1.08;0.90;;;8.40;99.90;;;;;;5071064;28;20078;-35
2022/12/30 09:01:27;;;;;;;2.22;1.10;;;8.40;99.90;;;;;;5070982;28;20025;-35
2022/12/30 09:03:54;;;;;;;2.10;0.93;;;8.50;99.90;;;;;;5071078;28;20063;-35
2022/12/30 09:06:22;;;;;;;1.42;0.88;;;8.50;99.90;;;;;;5070937;28;20104;-35
2022/12/30 09:08:48;;;;;;;1.00;0.90;;;8.50;99.90;;;;;;5071015;28;20080;-39
2022/12/30 09:11:20;;;;;;;1.30;0.80;;;8.50;99.90;;;;;;5070836;28;20021;-36
2022/12/30 09:13:46;;;;;;;1.88;1.20;;;8.60;99.90;;;;;;5071039;28;20095;-37
2022/12/30 09:16:15;;;;;;;1.60;1.08;;;8.60;99.90;;;;;;5070530;28;20166;-36
2022/12/30 09:18:41;;;;;;;1.45;1.00;;;8.60;99.90;;;;;;5072242;28;20107;-35
2022/12/30 09:21:07;;;;;;;1.55;1.10;;;8.60;99.90;;;;;;5074802;28;20108;-39
2022/12/30 09:23:33;;;;;;;1.33;0.95;;;8.70;99.90;;;;;;5074765;28;20158;-35
2022/12/30 09:25:59;;;;;;;2.47;1.27;;;8.70;99.90;;;;;;5074489;28;20024;-38
2022/12/30 09:28:25;;;;;;;1.85;1.10;;;8.70;99.90;;;;;;5074320;28;20036;-35
2022/12/30 09:30:51;;;;;;;1.70;0.98;;;8.70;99.90;;;;;;5074877;28;20116;-34
2022/12/30 09:33:17;;;;;;;2.58;1.15;;;8.80;99.90;;;;;;5074449;28;20497;-36
2022/12/30 09:35:42;;;;;;;1.95;1.17;;;8.70;99.90;;;;;;5074332;28;20020;-35
2022/12/30 09:38:08;;;;;;;2.15;0.90;;;8.80;99.90;;;;;;5075366;28;20021;-42
2022/12/30 09:40:55;;;;;;;1.42;0.82;;;8.80;99.90;;;;;;5073487;28;20089;-40
2022/12/30 09:43:30;;;;;;;1.42;0.73;;;8.80;99.90;;;;;;5075322;28;20134;-34
2022/12/30 09:46:08;;;;;;;1.67;0.95;;;8.80;99.90;;;;;;5074453;28;20033;-39
2022/12/30 09:49:03;;;;;;;3.58;1.17;;;8.90;99.90;;;;;;5074477;28;20024;-43
2022/12/30 09:52:16;;;;;;;3.65;0.90;;;8.80;99.90;;;;;;5066244;28;20407;-42
2022/12/30 09:54:51;;;;;;;3.03;1.00;;;8.90;99.90;;;;;;5074283;28;20549;-43
2022/12/30 09:57:32;;;;;;;2.38;0.77;;;8.90;99.90;;;;;;5074177;28;20104;-36
2022/12/30 10:00:15;;;;;;;2.42;0.95;;;8.90;99.90;;;;;;5074328;28;20020;-37
2022/12/30 10:02:50;;;;;;;1.70;0.95;;;8.90;99.90;;;;;;5074632;28;20131;-35
2022/12/30 10:05:16;;;;;;;1.13;0.90;;;9.00;99.90;;;;;;5074417;28;20418;-42
2022/12/30 10:07:50;;;;;;;2.33;1.10;;;9.00;99.90;;;;;;5074073;28;20038;-42
2022/12/30 10:11:01;;;;;;;1.63;1.02;;;9.00;99.90;;;;;;5073932;28;20036;-43
2022/12/30 10:13:53;;;;;;;1.02;0.75;;;9.10;99.90;;;;;;5045518;28;20037;-38
2022/12/30 10:16:58;;;;;;;1.52;1.10;;;9.10;99.90;;;;;;5073658;28;20029;-36
2022/12/30 10:19:35;;;;;;;3.42;1.10;;;9.10;99.90;;;;;;5074170;28;20521;-40
2022/12/30 10:22:19;;;;;;;1.65;1.00;;;9.10;99.90;;;;;;5074161;28;20028;-41
2022/12/30 10:25:00;;;;;;;2.40;1.23;;;9.10;99.90;;;;;;5074469;28;20021;-38
2022/12/30 10:27:37;;;;;;;2.17;1.15;;;9.20;99.90;;;;;;5073277;28;20251;-40
2022/12/30 10:30:03;;;;;;;1.52;1.08;;;9.20;99.90;;;;;;5073342;28;20033;-38
2022/12/30 10:32:32;;;;;;;2.35;1.25;;;9.20;99.90;;;;;;5073662;28;20104;-42
2022/12/30 10:35:11;;;;;;;1.13;0.88;;;9.20;99.90;;;;;;5073814;28;20099;-36
2022/12/30 10:37:37;;;;;;;2.47;0.93;;;9.20;99.90;;;;;;5073319;28;20021;-41
2022/12/30 10:40:14;;;;;;;2.25;1.10;;;9.20;99.90;;;;;;5073549;28;20031;-41
2022/12/30 10:43:00;;;;;;;2.35;0.90;;;9.20;99.90;;;;;;5073300;28;20435;-39
2022/12/30 10:45:31;;;;;;;2.03;0.68;;;9.20;99.90;;;;;;5073340;28;20021;-36
2022/12/30 10:48:21;;;;;;;2.05;0.90;;;9.30;99.90;;;;;;5073029;28;20035;-42
2022/12/30 10:50:48;;;;;;;3.85;1.00;;;9.30;99.90;;;;;;5073273;28;20021;-32
2022/12/30 10:53:20;;;;;;;1.50;1.05;;;9.30;99.90;;;;;;5073413;28;20070;-36
2022/12/30 10:55:51;;;;;;;2.85;0.90;;;9.30;99.90;;;;;;5072860;28;20036;-32
2022/12/30 10:58:35;;;;;;;2.63;1.10;;;9.30;99.90;;;;;;5073267;28;20482;-41
2022/12/30 11:01:01;;;;;;;2.78;1.20;;;9.30;99.90;;;;;;5073359;28;20424;-40
2022/12/30 11:03:29;;;;;;;1.63;1.00;;;9.30;99.90;;;;;;5072919;28;20033;-39
2022/12/30 11:05:56;;;;;;;2.08;1.00;;;9.30;99.90;;;;;;5073048;28;20048;-42
2022/12/30 11:08:28;;;;;;;1.98;1.10;;;9.30;99.90;;;;;;5072695;28;20020;-42
2022/12/30 11:11:03;;;;;;;1.38;1.10;;;9.30;99.90;;;;;;5073325;28;20037;-35
2022/12/30 11:16:13;;;;;;;;;;;9.30;99.90;;;;;;5072868;28;20048;-35
2022/12/30 11:18:44;;;;;;;3.72;1.13;;;9.30;99.90;;;;;;5072879;28;19904;-40
2022/12/30 11:21:10;;;;;;;1.33;0.90;;;9.30;99.90;;;;;;5072529;28;20523;-33
2022/12/30 11:23:40;;;;;;;1.88;1.20;;;9.30;99.90;;;;;;5072725;28;20119;-38
2022/12/30 11:26:08;;;;;;;2.25;1.10;;;9.30;99.90;;;;;;5072822;28;20077;-37
2022/12/30 11:28:43;;;;;;;1.60;1.10;;;9.30;99.90;;;;;;5072623;28;20032;-41
2022/12/30 11:31:12;;;;;;;2.42;1.20;;;9.30;99.90;;;;;;5072402;28;20368;-41
2022/12/30 11:33:51;;;;;;;2.15;1.10;;;9.30;99.90;;;;;;5072354;28;20478;-36
2022/12/30 11:36:28;;;;;;;1.70;1.05;;;9.30;99.90;;;;;;5072444;28;20028;-42
2022/12/30 11:38:56;;;;;;;0.98;0.80;;;9.30;99.90;;;;;;5072476;28;20048;-34
2022/12/30 11:41:28;;;;;;;1.63;1.00;;;9.30;99.90;;;;;;5071937;28;20032;-37
2022/12/30 11:43:59;;;;;;;2.03;0.95;;;9.30;99.90;;;;;;5072180;28;20028;-38
2022/12/30 11:46:33;;;;;;;1.38;1.05;;;9.30;99.90;;;;;;5071915;28;20556;-34
2022/12/30 11:49:00;;;;;;;;;;;9.30;99.90;;;;;;5072446;28;20031;-32
2022/12/30 11:51:32;;;;;;;1.75;1.10;;;9.30;99.90;;;;;;5072255;28;19956;-42
2022/12/30 11:54:12;;;;;;;2.00;0.95;;;9.30;99.90;;;;;;5071885;28;20486;-33
2022/12/30 11:57:08;;;;;;;1.90;1.00;;;9.30;99.90;;;;;;5071523;28;20127;-41
2022/12/30 11:59:37;;;;;;;1.88;1.13;;;9.30;99.90;;;;;;5071732;28;20489;-41
2022/12/30 12:02:15;;;;;;;2.38;1.10;;;9.30;99.90;;;;;;5071824;28;20071;-35
2022/12/30 12:04:41;;;;;;;2.00;1.10;;;9.30;99.90;;;;;;5071696;28;20036;-38
2022/12/30 12:07:16;;;;;;;1.90;1.05;;;9.20;99.90;;;;;;5072033;28;20020;-35
2022/12/30 12:10:13;;;;;;;1.35;0.90;;;9.20;99.90;;;;;;5071577;28;20028;-43
2022/12/30 12:12:56;;;;;;;1.83;1.10;;;9.20;99.90;;;;;;5065786;28;20029;-38
2022/12/30 12:15:42;;;;;;;1.98;0.93;;;9.20;99.90;;;;;;5071447;28;20039;-35
2022/12/30 12:18:20;;;;;;;1.52;1.00;;;9.20;99.90;;;;;;5071450;28;20032;-39
2022/12/30 12:21:21;;;;;;;2.13;1.20;;;9.20;99.90;;;;;;5071490;28;20035;-40
2022/12/30 12:24:17;;;;;;;1.35;1.00;;;9.20;99.90;;;;;;5071511;28;20024;-43
2022/12/30 12:26:57;;;;;;;1.77;1.00;;;9.20;99.90;;;;;;5071383;28;20032;-34
2022/12/30 12:29:24;;;;;;;2.65;0.93;;;9.20;99.90;;;;;;5071476;28;20047;-39
2022/12/30 12:32:18;;;;;;;2.10;0.98;;;9.10;99.90;;;;;;5071404;28;20066;-37
2022/12/30 12:35:21;;;;;;;1.65;1.00;;;9.10;99.90;;;;;;5071330;28;20533;-43
2022/12/30 12:38:22;;;;;;;1.52;1.08;;;9.10;99.90;;;;;;5009042;28;20034;-34
2022/12/30 12:41:14;;;;;;;1.95;1.20;;;9.10;99.90;;;;;;5071353;28;20082;-41
2022/12/30 12:43:54;;;;;;;4.10;1.60;;;9.10;99.90;;;;;;5071445;28;20028;-35
2022/12/30 12:46:27;;;;;;;3.50;1.30;;;9.10;99.90;;;;;;5070787;28;20038;-36
2022/12/30 12:49:12;;;;;;;3.05;1.33;;;9.00;99.90;;;;;;5071289;28;20386;-36
2022/12/30 12:52:32;;;;;;;2.78;1.33;;;9.00;99.90;;;;;;5071120;28;20452;-36
2022/12/30 12:55:30;;;;;;;5.75;1.25;;;9.00;99.90;;;;;;5072625;28;20041;-34
2022/12/30 12:58:18;;;;;;;2.67;1.33;;;9.00;99.90;;;;;;5075286;28;20039;-40
2022/12/30 13:01:02;;;;;;;1.85;1.30;;;9.00;99.90;;;;;;5075395;28;20047;-34
2022/12/30 13:03:53;;;;;;;3.22;1.23;;;9.00;99.90;;;;;;5075307;28;20059;-33
2022/12/30 13:06:51;;;;;;;2.10;1.20;;;9.00;99.90;;;;;;5075375;28;20043;-34
2022/12/30 13:09:38;;;;;;;3.53;1.17;;;8.90;99.90;;;;;;5075413;28;20035;-34
2022/12/30 13:12:48;;;;;;;3.17;1.52;;;9.00;99.90;;;;;;5075103;28;20028;-32
2022/12/30 13:15:26;;;;;;;2.60;1.10;;;9.00;99.90;;;;;;5075454;28;20025;-39
2022/12/30 13:17:56;;;;;;;2.50;1.42;;;9.00;99.90;;;;;;5074824;28;20024;-37
2022/12/30 13:20:40;;;;;;;2.35;1.27;;;9.00;99.90;;;;;;5075147;28;20028;-40
2022/12/30 13:23:06;;;;;;;4.25;1.30;;;9.00;99.90;;;;;;5075114;28;20020;-39
2022/12/30 13:25:38;;;;;;;3.15;1.48;;;9.00;99.90;;;;;;5074800;28;20039;-33
2022/12/30 13:28:06;;;;;;;2.95;1.55;;;9.00;99.90;;;;;;5074346;28;20493;-39
2022/12/30 13:30:47;;;;;;;1.60;1.30;;;8.90;99.90;;;;;;5074620;28;20363;-38
2022/12/30 13:33:29;;;;;;;2.67;1.10;;;9.00;99.90;;;;;;5074757;28;20394;-33
2022/12/30 13:36:41;;;;;;;2.63;1.30;;;9.00;99.90;;;;;;5074764;28;20023;-38
2022/12/30 13:39:26;;;;;;;2.28;1.30;;;9.00;99.90;;;;;;5012523;28;20079;-37
2022/12/30 13:42:16;;;;;;;1.52;1.10;;;8.90;99.90;;;;;;5012392;28;20033;-34
2022/12/30 13:44:44;;;;;;;1.73;1.15;;;8.90;99.90;;;;;;5059508;28;20032;-42
2022/12/30 13:47:37;;;;;;;1.83;1.08;;;8.90;99.90;;;;;;5074151;28;20389;-34
2022/12/30 13:50:17;;;;;;;2.25;1.15;;;8.90;99.90;;;;;;5074319;28;20040;-38
2022/12/30 13:52:49;;;;;;;1.77;1.10;;;8.90;99.90;;;;;;5074278;28;20099;-36
2022/12/30 13:55:30;;;;;;;2.60;1.25;;;8.90;99.90;;;;;;5074058;28;20299;-41
2022/12/30 13:58:13;;;;;;;2.50;1.13;;;8.90;99.90;;;;;;5073979;28;20024;-34
2022/12/30 14:00:41;;;;;;;1.50;1.20;;;8.90;99.90;;;;;;5074070;28;20036;-36
2022/12/30 14:03:29;;;;;;;1.35;1.10;;;8.90;99.90;;;;;;5074186;28;20036;-37
2022/12/30 14:06:17;;;;;;;2.85;1.60;;;8.90;99.90;;;;;;5073469;28;20103;-35
2022/12/30 14:08:45;;;;;;;8.50;2.13;;;8.90;99.90;;;;;;5063284;28;20041;-37
2022/12/30 14:11:13;;;;;;;2.42;1.33;;;8.90;99.90;;;;;;5074128;28;20025;-37